Time;durP1;ratioP1;P1;durP2;ratioP2;P2;SDS_P1;SDS_P2;PMS_P1;PMS_P2;Temp;Humidity;BMP_temperature;BMP_pressure;BME280_temperature;BME280_humidity;BME280_pressure;Samples;Min_cycle;Max_cycle;Signal;HPM_P1;HPM_P2
2022/12/01 00:01:12;;;;;;;40.00;18.38;;;5.70;99.90;;;;;;4979337;28;20066;-60
2022/12/01 00:03:37;;;;;;;42.35;18.52;;;5.70;99.90;;;;;;4977209;28;20035;-60
2022/12/01 00:06:10;;;;;;;44.92;20.65;;;5.80;99.90;;;;;;4979557;28;20035;-60
2022/12/01 00:08:37;;;;;;;41.05;18.02;;;5.80;99.90;;;;;;4970929;28;20031;-60
2022/12/01 00:11:09;;;;;;;41.55;18.38;;;5.80;99.90;;;;;;4980901;28;20042;-60
2022/12/01 00:13:36;;;;;;;44.88;19.65;;;5.80;99.90;;;;;;4959814;28;20034;-59
2022/12/01 00:16:12;;;;;;;43.83;19.17;;;5.80;99.90;;;;;;4973471;28;20035;-59
2022/12/01 00:18:38;;;;;;;41.78;17.55;;;5.90;99.90;;;;;;4972884;28;20505;-60
2022/12/01 00:21:05;;;;;;;39.75;18.00;;;5.90;99.90;;;;;;4977930;28;20113;-60
2022/12/01 00:23:31;;;;;;;39.63;18.80;;;6.00;99.90;;;;;;4970294;28;20046;-59
2022/12/01 00:26:04;;;;;;;48.95;19.30;;;6.00;99.90;;;;;;4970053;28;20031;-59
2022/12/01 00:28:30;;;;;;;41.65;18.73;;;6.00;99.90;;;;;;4971720;28;20053;-59
2022/12/01 00:30:55;;;;;;;39.40;17.85;;;6.00;99.90;;;;;;4971414;28;20495;-59
2022/12/01 00:33:21;;;;;;;44.58;20.20;;;6.00;99.90;;;;;;4971417;28;20132;-59
2022/12/01 00:35:47;;;;;;;40.15;18.33;;;6.00;99.90;;;;;;4971208;28;20122;-59
2022/12/01 00:38:13;;;;;;;44.17;19.80;;;6.00;99.90;;;;;;4971984;28;20038;-59
2022/12/01 00:40:39;;;;;;;43.75;17.30;;;6.00;99.90;;;;;;4973301;28;20023;-60
2022/12/01 00:43:04;;;;;;;39.45;17.60;;;6.00;99.90;;;;;;4974720;28;20046;-60
2022/12/01 00:45:30;;;;;;;38.00;17.85;;;6.10;99.90;;;;;;4980643;28;20031;-60
2022/12/01 00:47:56;;;;;;;35.72;17.45;;;6.10;99.90;;;;;;4975685;28;20046;-59
2022/12/01 00:50:23;;;;;;;34.35;17.27;;;6.10;99.90;;;;;;4970285;28;20057;-59
2022/12/01 00:52:48;;;;;;;35.28;16.63;;;6.10;99.90;;;;;;4978981;28;20122;-59
2022/12/01 00:55:14;;;;;;;35.70;15.45;;;6.10;99.90;;;;;;4972473;28;20110;-60
2022/12/01 00:57:40;;;;;;;32.17;15.82;;;6.10;99.90;;;;;;4971715;28;20027;-59
2022/12/01 01:00:06;;;;;;;32.33;16.52;;;6.10;99.90;;;;;;4971974;28;20030;-59
2022/12/01 01:02:32;;;;;;;34.00;16.67;;;6.20;99.90;;;;;;4976617;28;20035;-60
2022/12/01 01:04:58;;;;;;;35.25;15.90;;;6.20;99.90;;;;;;4972075;28;20039;-59
2022/12/01 01:07:23;;;;;;;30.00;14.90;;;6.20;99.90;;;;;;4980907;28;20565;-60
2022/12/01 01:09:49;;;;;;;37.35;16.55;;;6.20;99.90;;;;;;4973100;28;20034;-60
2022/12/01 01:12:15;;;;;;;32.72;15.80;;;6.20;99.90;;;;;;4970049;28;20046;-61
2022/12/01 01:14:40;;;;;;;36.72;15.43;;;6.20;99.90;;;;;;4972493;28;20029;-60
2022/12/01 01:17:06;;;;;;;30.30;14.93;;;6.20;99.90;;;;;;4972728;28;20031;-60
2022/12/01 01:19:32;;;;;;;33.50;16.40;;;6.20;99.90;;;;;;4983756;28;20416;-59
2022/12/01 01:21:58;;;;;;;29.95;15.10;;;6.30;99.90;;;;;;4982659;28;20050;-59
2022/12/01 01:24:23;;;;;;;30.50;15.75;;;6.30;99.90;;;;;;4981463;28;20072;-60
2022/12/01 01:26:49;;;;;;;33.55;15.93;;;6.30;99.90;;;;;;4973150;28;20046;-59
2022/12/01 01:29:15;;;;;;;33.80;16.35;;;6.30;99.90;;;;;;4975951;28;20037;-60
2022/12/01 01:31:41;;;;;;;33.38;15.68;;;6.30;99.90;;;;;;4972659;28;20423;-60
2022/12/01 01:34:06;;;;;;;33.70;16.00;;;6.30;99.90;;;;;;4976648;28;20046;-59
2022/12/01 01:36:32;;;;;;;31.13;14.82;;;6.40;99.90;;;;;;4973805;28;20117;-60
2022/12/01 01:38:59;;;;;;;25.65;14.55;;;6.40;99.90;;;;;;4971929;28;20505;-59
2022/12/01 01:41:25;;;;;;;29.83;15.45;;;6.40;99.90;;;;;;4974131;28;20556;-60
2022/12/01 01:44:02;;;;;;;27.70;14.68;;;6.40;99.90;;;;;;4973527;28;20126;-60
2022/12/01 01:46:33;;;;;;;29.63;14.27;;;6.40;99.90;;;;;;4971998;28;20058;-59
2022/12/01 01:49:07;;;;;;;29.10;15.13;;;6.40;99.90;;;;;;4970740;28;20023;-60
2022/12/01 01:51:50;;;;;;;31.85;15.40;;;6.40;99.90;;;;;;4969496;28;20053;-60
2022/12/01 01:54:22;;;;;;;39.00;14.65;;;6.40;99.90;;;;;;4969765;28;20114;-61
2022/12/01 01:56:50;;;;;;;27.50;14.48;;;6.40;99.90;;;;;;4968988;28;20038;-59
2022/12/01 01:59:21;;;;;;;27.92;14.32;;;6.40;99.90;;;;;;4974342;28;20031;-60
2022/12/01 02:01:55;;;;;;;31.10;15.98;;;6.30;99.90;;;;;;4976411;28;20077;-61
2022/12/01 02:04:23;;;;;;;30.08;14.85;;;6.40;99.90;;;;;;4976185;28;20090;-61
2022/12/01 02:06:48;;;;;;;31.60;14.18;;;6.30;99.90;;;;;;4973534;28;20065;-60
2022/12/01 02:09:14;;;;;;;30.95;13.98;;;6.30;99.90;;;;;;4975956;28;20050;-60
2022/12/01 02:11:59;;;;;;;30.98;14.25;;;6.30;99.90;;;;;;4975161;28;20050;-60
2022/12/01 02:14:37;;;;;;;28.52;13.98;;;6.40;99.90;;;;;;4974772;28;20516;-63
2022/12/01 02:17:09;;;;;;;28.45;15.00;;;6.40;99.90;;;;;;4974632;28;20058;-60
2022/12/01 02:19:38;;;;;;;29.05;14.23;;;6.40;99.90;;;;;;4978493;28;20034;-60
2022/12/01 02:22:39;;;;;;;31.52;14.40;;;6.40;99.90;;;;;;4976617;28;20037;-60
2022/12/01 02:25:29;;;;;;;32.20;13.85;;;6.40;99.90;;;;;;4974140;28;20555;-60
2022/12/01 02:28:24;;;;;;;25.90;13.95;;;6.40;99.90;;;;;;4972976;28;20045;-60
2022/12/01 02:30:59;;;;;;;31.88;14.20;;;6.40;99.90;;;;;;4971158;28;20035;-59
2022/12/01 02:33:28;;;;;;;36.55;15.07;;;6.40;99.90;;;;;;4979817;28;20126;-60
2022/12/01 02:36:00;;;;;;;32.53;15.25;;;6.30;99.90;;;;;;4981493;28;20469;-60
2022/12/01 02:38:31;;;;;;;27.50;14.77;;;6.30;99.90;;;;;;4987476;28;20479;-60
2022/12/01 02:41:03;;;;;;;27.70;13.73;;;6.20;99.90;;;;;;4988573;28;20382;-61
2022/12/01 02:43:43;;;;;;;30.63;13.95;;;6.20;99.90;;;;;;4980184;28;20051;-60
2022/12/01 02:46:21;;;;;;;30.00;14.32;;;6.20;99.90;;;;;;4975863;28;20034;-60
2022/12/01 02:48:50;;;;;;;30.70;14.07;;;6.20;99.90;;;;;;4973518;28;20035;-60
2022/12/01 02:51:21;;;;;;;30.95;14.30;;;6.20;99.90;;;;;;4982488;28;20034;-60
2022/12/01 02:53:48;;;;;;;28.27;14.30;;;6.20;99.90;;;;;;4974559;28;20089;-60
2022/12/01 02:56:17;;;;;;;32.20;14.38;;;6.30;99.90;;;;;;4976613;28;20027;-59
2022/12/01 02:58:43;;;;;;;32.78;14.50;;;6.30;99.90;;;;;;4986907;28;20034;-59
2022/12/01 03:01:33;;;;;;;31.80;13.60;;;6.30;99.90;;;;;;4986882;28;20735;-60
2022/12/01 03:04:28;;;;;;;29.08;13.65;;;6.30;99.90;;;;;;4976746;28;20386;-62
2022/12/01 03:07:18;;;;;;;30.05;14.20;;;6.30;99.90;;;;;;4967355;28;20045;-60
2022/12/01 03:10:03;;;;;;;32.28;14.30;;;6.40;99.90;;;;;;4985021;28;20018;-60
2022/12/01 03:12:38;;;;;;;31.58;14.38;;;6.40;99.90;;;;;;4981709;28;20395;-61
2022/12/01 03:15:07;;;;;;;34.70;15.13;;;6.40;99.90;;;;;;4979795;28;20023;-61
2022/12/01 03:17:48;;;;;;;31.65;13.73;;;6.40;99.90;;;;;;4982741;28;20042;-58
2022/12/01 03:20:21;;;;;;;29.27;14.07;;;6.40;99.90;;;;;;4987616;28;20073;-59
2022/12/01 03:22:58;;;;;;;29.30;13.60;;;6.40;99.90;;;;;;4967870;28;20038;-60
2022/12/01 03:25:25;;;;;;;35.60;14.45;;;6.40;99.90;;;;;;4977582;28;20093;-60
2022/12/01 03:27:55;;;;;;;31.55;14.77;;;6.30;99.90;;;;;;4983855;28;20097;-60
2022/12/01 03:30:23;;;;;;;30.80;15.20;;;6.30;99.90;;;;;;4978564;28;20062;-60
2022/12/01 03:33:13;;;;;;;33.22;14.10;;;6.30;99.90;;;;;;4978483;28;20042;-61
2022/12/01 03:35:46;;;;;;;30.88;14.32;;;6.30;99.90;;;;;;4979147;28;20467;-60
2022/12/01 03:38:26;;;;;;;34.40;14.70;;;6.30;99.90;;;;;;4980541;28;20101;-60
2022/12/01 03:40:56;;;;;;;30.50;14.57;;;6.30;99.90;;;;;;4979023;28;20061;-60
2022/12/01 03:43:36;;;;;;;29.42;14.98;;;6.30;99.90;;;;;;4971165;28;20043;-60
2022/12/01 03:46:11;;;;;;;31.77;14.25;;;6.30;99.90;;;;;;4973687;28;20050;-60
2022/12/01 03:48:38;;;;;;;31.48;14.95;;;6.30;99.90;;;;;;4981215;28;20080;-61
2022/12/01 03:51:10;;;;;;;27.83;13.60;;;6.30;99.90;;;;;;4972561;28;20090;-61
2022/12/01 03:54:00;;;;;;;28.60;13.98;;;6.30;99.90;;;;;;4978345;28;20117;-61
2022/12/01 03:56:31;;;;;;;31.67;15.02;;;6.30;99.90;;;;;;4976437;28;20038;-61
2022/12/01 03:59:01;;;;;;;22.23;9.55;;;6.30;99.90;;;;;;4977295;28;20110;-59
2022/12/01 04:01:31;;;;;;;27.55;14.00;;;6.30;99.90;;;;;;4982158;28;20069;-59
2022/12/01 04:04:07;;;;;;;32.33;13.57;;;6.30;99.90;;;;;;4982163;28;20475;-60
2022/12/01 04:06:33;;;;;;;33.35;13.10;;;6.30;99.90;;;;;;4969212;28;20026;-59
2022/12/01 04:08:58;;;;;;;30.23;14.48;;;6.20;99.90;;;;;;4976169;28;20033;-60
2022/12/01 04:14:08;;;;;;;23.40;12.73;;;6.30;99.90;;;;;;4967692;28;20382;-60
2022/12/01 04:16:34;;;;;;;26.20;12.93;;;6.40;99.90;;;;;;4978999;28;20113;-59
2022/12/01 04:19:00;;;;;;;28.25;12.82;;;6.40;99.90;;;;;;4974844;28;20117;-59
2022/12/01 04:21:25;;;;;;;27.08;13.45;;;6.40;99.90;;;;;;4985644;28;20474;-59
2022/12/01 04:24:00;;;;;;;24.85;12.35;;;6.40;99.90;;;;;;4974981;28;20031;-59
2022/12/01 04:26:34;;;;;;;27.40;12.55;;;6.50;99.90;;;;;;4977345;28;20043;-59
2022/12/01 04:29:02;;;;;;;26.23;12.25;;;6.50;99.90;;;;;;4990509;28;20038;-59
2022/12/01 04:31:28;;;;;;;33.85;13.90;;;6.50;99.90;;;;;;4976423;28;20129;-59
2022/12/01 04:33:55;;;;;;;24.88;12.15;;;6.50;99.90;;;;;;4973813;28;20181;-60
2022/12/01 04:36:22;;;;;;;26.17;12.90;;;6.50;99.90;;;;;;4974364;28;20035;-59
2022/12/01 04:38:48;;;;;;;25.98;12.45;;;6.50;99.90;;;;;;4982973;28;20026;-59
2022/12/01 04:41:14;;;;;;;24.48;12.43;;;6.50;99.90;;;;;;4978341;28;20313;-60
2022/12/01 04:43:40;;;;;;;25.42;12.40;;;6.50;99.90;;;;;;4971077;28;20058;-59
2022/12/01 04:46:06;;;;;;;24.23;11.32;;;6.50;99.90;;;;;;4970282;28;20080;-60
2022/12/01 04:48:36;;;;;;;28.33;12.60;;;6.50;99.90;;;;;;4983317;28;20229;-59
2022/12/01 04:51:04;;;;;;;21.63;11.15;;;6.50;99.90;;;;;;4980524;28;20038;-59
2022/12/01 04:53:30;;;;;;;23.75;12.20;;;6.50;99.90;;;;;;4975960;28;20034;-60
2022/12/01 04:55:56;;;;;;;26.77;11.35;;;6.50;99.90;;;;;;4977706;28;20050;-59
2022/12/01 04:58:21;;;;;;;20.15;10.95;;;6.60;99.90;;;;;;4982415;28;20117;-60
2022/12/01 05:00:47;;;;;;;22.77;11.88;;;6.60;99.90;;;;;;4976302;28;20129;-60
2022/12/01 05:03:13;;;;;;;23.20;10.80;;;6.60;99.90;;;;;;4990607;28;20521;-60
2022/12/01 05:05:39;;;;;;;20.65;11.10;;;6.60;99.90;;;;;;4979289;28;20461;-59
2022/12/01 05:08:04;;;;;;;21.65;10.20;;;6.60;99.90;;;;;;4972707;28;20019;-59
2022/12/01 05:10:33;;;;;;;21.80;10.20;;;6.60;99.90;;;;;;4974503;28;20399;-60
2022/12/01 05:12:59;;;;;;;23.35;11.40;;;6.60;99.90;;;;;;4972705;28;20034;-60
2022/12/01 05:15:25;;;;;;;19.77;10.70;;;6.60;99.90;;;;;;4967334;28;20057;-60
2022/12/01 05:17:50;;;;;;;23.50;10.65;;;6.60;99.90;;;;;;4979873;28;20101;-60
2022/12/01 05:23:06;;;;;;;20.23;10.05;;;6.60;99.90;;;;;;4981710;28;20093;-60
2022/12/01 05:25:33;;;;;;;17.50;10.73;;;6.60;99.90;;;;;;4986676;28;20538;-60
2022/12/01 05:27:59;;;;;;;19.00;9.55;;;6.60;99.90;;;;;;4984522;28;20076;-60
2022/12/01 05:30:24;;;;;;;17.45;9.73;;;6.60;99.90;;;;;;4979646;28;20084;-60
2022/12/01 05:32:50;;;;;;;18.17;9.18;;;6.60;99.90;;;;;;4982349;28;20125;-60
2022/12/01 05:35:16;;;;;;;19.20;9.48;;;6.60;99.90;;;;;;4974369;28;20098;-60
2022/12/01 05:37:42;;;;;;;16.23;9.40;;;6.60;99.90;;;;;;4970268;28;20500;-60
2022/12/01 05:40:08;;;;;;;17.90;9.07;;;6.60;99.90;;;;;;4983159;28;20022;-60
2022/12/01 05:42:34;;;;;;;14.77;8.85;;;6.60;99.90;;;;;;4988681;28;20033;-60
2022/12/01 05:45:00;;;;;;;19.17;9.10;;;6.60;99.90;;;;;;4976051;28;20026;-60
2022/12/01 05:47:25;;;;;;;13.85;8.13;;;6.60;99.90;;;;;;4979709;28;20478;-59
2022/12/01 05:49:51;;;;;;;16.77;8.57;;;6.60;99.90;;;;;;4987188;28;20031;-60
2022/12/01 05:52:17;;;;;;;18.45;9.23;;;6.60;99.90;;;;;;4991724;28;20038;-60
2022/12/01 05:54:43;;;;;;;21.05;8.70;;;6.60;99.90;;;;;;4981589;28;20035;-60
2022/12/01 05:57:08;;;;;;;17.80;8.57;;;6.60;99.90;;;;;;4987018;28;20023;-62
2022/12/01 05:59:34;;;;;;;15.75;8.18;;;6.60;99.90;;;;;;4983575;28;20499;-60
2022/12/01 06:02:00;;;;;;;21.88;8.65;;;6.50;99.90;;;;;;4979580;28;20023;-59
2022/12/01 06:04:26;;;;;;;18.50;8.73;;;6.60;99.90;;;;;;4991053;28;20026;-60
2022/12/01 06:06:51;;;;;;;15.88;7.75;;;6.60;99.90;;;;;;4982303;28;20050;-60
2022/12/01 06:09:18;;;;;;;16.08;8.85;;;6.50;99.90;;;;;;4988841;28;20033;-60
2022/12/01 06:11:43;;;;;;;15.38;8.27;;;6.50;99.90;;;;;;4983227;28;20039;-60
2022/12/01 06:14:09;;;;;;;18.52;7.82;;;6.50;99.90;;;;;;4987161;28;20063;-62
2022/12/01 06:16:35;;;;;;;13.15;7.85;;;6.50;99.90;;;;;;4984557;28;20379;-60
2022/12/01 06:19:00;;;;;;;16.65;9.52;;;6.50;99.90;;;;;;4985198;28;20376;-61
2022/12/01 06:21:26;;;;;;;15.63;7.63;;;6.60;99.90;;;;;;4989313;28;20619;-60
2022/12/01 06:23:52;;;;;;;15.40;8.48;;;6.60;99.90;;;;;;4982082;28;20026;-61
2022/12/01 06:26:18;;;;;;;15.18;8.23;;;6.60;99.90;;;;;;4989737;28;20045;-60
2022/12/01 06:28:43;;;;;;;14.88;8.18;;;6.50;99.90;;;;;;4975662;28;20026;-60
2022/12/01 06:31:09;;;;;;;13.45;7.35;;;6.50;99.90;;;;;;4972210;28;20035;-60
2022/12/01 06:33:35;;;;;;;11.95;6.50;;;6.50;99.90;;;;;;4981068;28;20031;-61
2022/12/01 06:36:03;;;;;;;12.38;7.45;;;6.50;99.90;;;;;;4978218;28;20031;-59
2022/12/01 06:38:30;;;;;;;14.18;6.80;;;6.60;99.90;;;;;;4990439;28;20034;-59
2022/12/01 06:40:56;;;;;;;16.65;7.38;;;6.50;99.90;;;;;;4985987;28;20038;-60
2022/12/01 06:43:21;;;;;;;16.05;7.22;;;6.50;99.90;;;;;;4983926;28;20039;-60
2022/12/01 06:45:47;;;;;;;15.48;7.88;;;6.60;99.90;;;;;;4972438;28;20651;-60
2022/12/01 06:48:13;;;;;;;15.57;6.85;;;6.60;99.90;;;;;;4979123;28;20030;-60
2022/12/01 06:50:39;;;;;;;13.88;7.70;;;6.60;99.90;;;;;;4972748;28;20047;-59
2022/12/01 06:53:05;;;;;;;12.70;6.20;;;6.60;99.90;;;;;;4978146;28;20058;-59
2022/12/01 06:55:31;;;;;;;12.93;7.60;;;6.60;99.90;;;;;;4964826;28;20135;-60
2022/12/01 06:58:00;;;;;;;14.63;6.55;;;6.60;99.90;;;;;;4978353;28;20022;-59
2022/12/01 07:00:26;;;;;;;13.70;6.55;;;6.70;99.90;;;;;;4980703;28;20486;-60
2022/12/01 07:02:51;;;;;;;12.40;6.50;;;6.70;99.90;;;;;;4983853;28;20161;-60
2022/12/01 07:05:17;;;;;;;12.88;6.97;;;6.60;99.90;;;;;;4968036;28;20118;-60
2022/12/01 07:07:43;;;;;;;16.25;6.63;;;6.60;99.90;;;;;;4978676;28;20081;-60
2022/12/01 07:10:10;;;;;;;14.68;6.80;;;6.60;99.90;;;;;;4972492;28;20114;-61
2022/12/01 07:12:36;;;;;;;12.07;6.35;;;6.60;99.90;;;;;;4975974;28;20047;-60
2022/12/01 07:15:04;;;;;;;15.88;6.53;;;6.60;99.90;;;;;;4976716;28;20029;-60
2022/12/01 07:17:30;;;;;;;11.30;6.47;;;6.60;99.90;;;;;;4984856;28;20121;-60
2022/12/01 07:19:56;;;;;;;13.73;7.30;;;6.70;99.90;;;;;;4967465;28;20474;-61
2022/12/01 07:22:22;;;;;;;14.63;6.85;;;6.70;99.90;;;;;;4973870;28;20033;-60
2022/12/01 07:24:48;;;;;;;12.65;6.07;;;6.70;99.90;;;;;;4979322;28;20038;-59
2022/12/01 07:27:14;;;;;;;10.80;6.28;;;6.70;99.90;;;;;;4968126;28;20031;-61
2022/12/01 07:29:40;;;;;;;13.27;6.82;;;6.70;99.90;;;;;;4963611;28;20478;-59
2022/12/01 07:32:05;;;;;;;12.77;6.80;;;6.70;99.90;;;;;;4975128;28;20038;-60
2022/12/01 07:34:31;;;;;;;11.75;6.93;;;6.70;99.90;;;;;;4969853;28;20044;-59
2022/12/01 07:36:57;;;;;;;14.30;7.72;;;6.70;99.90;;;;;;4967204;28;20395;-59
2022/12/01 07:39:23;;;;;;;16.23;7.28;;;6.70;99.90;;;;;;4970924;28;20435;-61
2022/12/01 07:41:49;;;;;;;17.10;7.20;;;6.70;99.90;;;;;;4985357;28;20410;-61
2022/12/01 07:44:15;;;;;;;10.80;6.55;;;6.70;99.90;;;;;;4977738;28;20065;-59
2022/12/01 07:46:41;;;;;;;14.45;6.63;;;6.80;99.90;;;;;;4978612;28;20118;-60
2022/12/01 07:49:09;;;;;;;13.57;6.95;;;6.80;99.90;;;;;;4986723;28;20029;-60
2022/12/01 07:51:35;;;;;;;13.07;6.82;;;6.70;99.90;;;;;;4977262;28;20497;-61
2022/12/01 07:54:05;;;;;;;14.77;6.57;;;6.70;99.90;;;;;;4980344;28;20030;-60
2022/12/01 07:56:32;;;;;;;10.55;6.28;;;6.70;99.90;;;;;;4976864;28;20035;-61
2022/12/01 07:58:58;;;;;;;14.50;6.80;;;6.70;99.90;;;;;;4972607;28;20144;-60
2022/12/01 08:01:24;;;;;;;16.70;6.97;;;6.70;99.90;;;;;;4973229;28;20034;-60
2022/12/01 08:03:52;;;;;;;11.82;6.40;;;6.70;99.90;;;;;;4977258;28;20081;-61
2022/12/01 08:06:19;;;;;;;14.98;6.15;;;6.70;99.90;;;;;;4977305;28;20506;-61
2022/12/01 08:08:44;;;;;;;11.52;6.93;;;6.70;99.90;;;;;;4971162;28;20034;-60
2022/12/01 08:11:13;;;;;;;18.42;9.23;;;6.70;99.90;;;;;;4986163;28;20045;-64
2022/12/01 08:13:40;;;;;;;15.15;7.28;;;6.80;99.90;;;;;;4973046;28;20038;-61
2022/12/01 08:16:09;;;;;;;9.50;5.70;;;6.80;99.90;;;;;;4968330;28;20114;-61
2022/12/01 08:18:36;;;;;;;14.50;5.90;;;6.80;99.90;;;;;;4970440;28;20126;-61
2022/12/01 08:21:03;;;;;;;12.32;6.03;;;6.80;99.90;;;;;;4970745;28;20506;-60
2022/12/01 08:23:28;;;;;;;13.27;6.22;;;6.80;99.90;;;;;;4974735;28;20089;-60
2022/12/01 08:25:56;;;;;;;14.05;7.35;;;6.90;99.90;;;;;;4973325;28;20034;-60
2022/12/01 08:28:22;;;;;;;15.05;6.93;;;7.00;99.90;;;;;;4970015;28;20465;-60
2022/12/01 08:30:48;;;;;;;18.40;7.60;;;7.00;99.90;;;;;;4973743;28;20046;-60
2022/12/01 08:33:14;;;;;;;9.65;6.38;;;7.00;99.90;;;;;;4978382;28;20026;-61
2022/12/01 08:35:39;;;;;;;14.73;6.57;;;6.90;99.90;;;;;;4980075;28;20471;-60
2022/12/01 08:38:05;;;;;;;12.43;6.32;;;6.90;99.90;;;;;;4973758;28;20400;-60
2022/12/01 08:40:31;;;;;;;11.73;6.50;;;6.80;99.90;;;;;;4974402;28;20030;-60
2022/12/01 08:42:57;;;;;;;13.55;6.10;;;6.70;99.90;;;;;;4982240;28;20062;-61
2022/12/01 08:45:22;;;;;;;13.68;7.03;;;6.70;99.90;;;;;;4971445;28;20031;-61
2022/12/01 08:47:48;;;;;;;14.10;6.85;;;6.60;99.90;;;;;;4980567;28;20030;-61
2022/12/01 08:50:15;;;;;;;11.82;6.68;;;6.60;99.90;;;;;;4971417;28;20027;-60
2022/12/01 08:52:40;;;;;;;12.60;6.82;;;6.50;99.90;;;;;;4979324;28;20030;-60
2022/12/01 08:55:07;;;;;;;12.25;6.25;;;6.50;99.90;;;;;;4978010;28;20034;-59
2022/12/01 08:57:33;;;;;;;13.43;7.60;;;6.40;99.90;;;;;;4977635;28;20058;-61
2022/12/01 08:59:59;;;;;;;9.43;5.65;;;6.40;99.90;;;;;;4970395;28;20026;-61
2022/12/01 09:02:25;;;;;;;14.35;6.50;;;6.40;99.90;;;;;;4976408;28;20033;-60
2022/12/01 09:04:51;;;;;;;11.82;6.30;;;6.40;99.90;;;;;;4973608;28;20026;-60
2022/12/01 09:07:18;;;;;;;9.50;6.32;;;6.40;99.90;;;;;;4977031;28;20026;-60
2022/12/01 09:09:44;;;;;;;11.07;5.95;;;6.40;99.90;;;;;;4970085;28;20037;-60
2022/12/01 09:12:10;;;;;;;16.50;5.93;;;6.40;99.90;;;;;;4968641;28;20077;-60
2022/12/01 09:14:41;;;;;;;12.57;5.70;;;6.50;99.90;;;;;;4983825;28;20050;-60
2022/12/01 09:17:07;;;;;;;12.32;5.78;;;6.50;99.90;;;;;;4981910;28;20033;-60
2022/12/01 09:19:34;;;;;;;10.82;5.60;;;6.50;99.90;;;;;;4971343;28;20390;-59
2022/12/01 09:22:00;;;;;;;18.25;6.28;;;6.40;99.90;;;;;;4965881;28;20435;-59
2022/12/01 09:24:25;;;;;;;13.23;5.63;;;6.50;99.90;;;;;;4969096;28;20039;-59
2022/12/01 09:26:56;;;;;;;14.90;6.88;;;6.60;99.90;;;;;;4969972;28;20106;-60
2022/12/01 09:29:22;;;;;;;7.68;4.88;;;6.70;99.90;;;;;;4961877;28;20403;-59
2022/12/01 09:31:48;;;;;;;9.85;5.10;;;6.70;99.90;;;;;;4966083;28;20097;-59
2022/12/01 09:34:16;;;;;;;17.50;6.50;;;6.80;99.90;;;;;;4977119;28;20026;-59
2022/12/01 09:36:42;;;;;;;13.75;5.85;;;6.80;99.90;;;;;;4972091;28;20154;-59
2022/12/01 09:39:11;;;;;;;11.85;5.38;;;6.80;99.90;;;;;;4973251;28;20444;-59
2022/12/01 09:41:49;;;;;;;10.80;5.88;;;6.90;99.90;;;;;;4967785;28;20554;-59
2022/12/01 09:44:36;;;;;;;9.88;5.55;;;6.90;99.90;;;;;;4972717;28;20061;-59
2022/12/01 09:47:29;;;;;;;11.27;5.72;;;7.00;99.90;;;;;;4969673;28;20035;-58
2022/12/01 09:50:01;;;;;;;17.40;5.78;;;7.20;99.90;;;;;;4967819;28;21003;-59
2022/12/01 09:52:37;;;;;;;11.55;5.40;;;7.30;99.90;;;;;;4974857;28;20506;-60
2022/12/01 09:55:09;;;;;;;10.68;5.22;;;7.20;99.90;;;;;;4970657;28;20030;-59
2022/12/01 09:57:38;;;;;;;13.55;5.70;;;7.30;99.90;;;;;;4962079;28;20178;-59
2022/12/01 10:00:13;;;;;;;9.63;4.47;;;7.30;99.90;;;;;;4964180;28;20391;-59
2022/12/01 10:02:49;;;;;;;10.45;5.38;;;7.40;99.90;;;;;;4969354;28;20070;-58
2022/12/01 10:05:19;;;;;;;10.73;5.03;;;7.40;99.90;;;;;;4968670;28;20035;-59
2022/12/01 10:08:08;;;;;;;11.88;5.15;;;7.40;99.90;;;;;;4964433;28;20114;-59
2022/12/01 10:10:37;;;;;;;13.15;5.70;;;7.50;99.90;;;;;;4967555;28;20454;-59
2022/12/01 10:13:21;;;;;;;12.35;5.75;;;7.50;99.90;;;;;;4967395;28;20109;-60
2022/12/01 10:15:53;;;;;;;10.57;5.35;;;7.50;99.90;;;;;;4967155;28;20042;-58
2022/12/01 10:18:27;;;;;;;17.70;5.22;;;7.50;99.90;;;;;;4970380;28;20035;-58
2022/12/01 10:21:02;;;;;;;10.85;5.40;;;7.50;99.90;;;;;;4967075;28;20142;-59
2022/12/01 10:23:42;;;;;;;11.85;5.13;;;7.60;99.90;;;;;;4970172;28;20142;-59
2022/12/01 10:26:25;;;;;;;17.30;7.35;;;7.70;99.90;;;;;;4972747;28;20031;-59
2022/12/01 10:29:37;;;;;;;16.17;4.97;;;7.70;99.90;;;;;;4969920;28;20031;-58
2022/12/01 10:32:43;;;;;;;13.63;5.30;;;7.80;99.90;;;;;;4968148;28;20046;-58
2022/12/01 10:35:16;;;;;;;13.95;5.38;;;7.90;99.90;;;;;;4975075;28;20490;-59
2022/12/01 10:37:44;;;;;;;15.45;6.18;;;7.90;99.90;;;;;;4969331;28;20437;-59
2022/12/01 10:40:15;;;;;;;8.68;5.18;;;7.90;99.90;;;;;;4974541;28;20026;-59
2022/12/01 10:42:45;;;;;;;13.30;5.43;;;7.90;99.90;;;;;;4971940;28;20046;-59
2022/12/01 10:45:26;;;;;;;15.02;6.00;;;7.80;99.90;;;;;;4975122;28;20482;-59
2022/12/01 10:48:19;;;;;;;11.68;6.05;;;8.00;99.90;;;;;;4969288;28;20044;-58
2022/12/01 10:50:48;;;;;;;11.05;5.05;;;7.90;99.90;;;;;;4972510;28;20078;-60
2022/12/01 10:53:23;;;;;;;8.98;5.25;;;7.90;99.90;;;;;;4974313;28;20498;-60
2022/12/01 10:55:55;;;;;;;9.18;5.38;;;7.80;99.90;;;;;;4971503;28;20073;-59
2022/12/01 10:58:21;;;;;;;14.05;6.15;;;8.00;99.90;;;;;;4977206;28;20039;-60
2022/12/01 11:00:56;;;;;;;13.50;5.47;;;8.20;99.90;;;;;;4969692;28;20031;-59
2022/12/01 11:03:25;;;;;;;8.82;5.35;;;8.40;99.90;;;;;;4973337;28;20483;-59
2022/12/01 11:05:57;;;;;;;8.68;5.43;;;8.40;99.90;;;;;;4974461;28;20073;-60
2022/12/01 11:08:51;;;;;;;13.70;6.40;;;8.50;99.90;;;;;;4978215;28;20092;-61
2022/12/01 11:11:35;;;;;;;12.13;5.68;;;8.50;99.90;;;;;;4973758;28;20046;-59
2022/12/01 11:14:06;;;;;;;7.95;4.53;;;8.70;99.90;;;;;;4961930;28;20041;-60
2022/12/01 11:16:44;;;;;;;11.57;6.05;;;8.80;99.90;;;;;;4970555;28;20037;-60
2022/12/01 11:19:21;;;;;;;11.80;6.25;;;9.00;99.90;;;;;;4964973;28;20110;-58
2022/12/01 11:21:52;;;;;;;16.80;7.47;;;9.00;99.90;;;;;;4966372;28;20035;-60
2022/12/01 11:24:41;;;;;;;11.30;6.40;;;9.10;99.90;;;;;;4970732;28;20037;-60
2022/12/01 11:27:24;;;;;;;14.98;6.30;;;9.20;99.90;;;;;;4969177;28;20050;-60
2022/12/01 11:30:19;;;;;;;13.02;6.75;;;9.50;99.90;;;;;;4970413;28;20130;-63
2022/12/01 11:32:55;;;;;;;12.02;6.55;;;10.10;99.90;;;;;;4970532;28;20471;-62
2022/12/01 11:35:24;;;;;;;14.05;6.70;;;11.00;99.90;;;;;;4972773;28;20046;-60
2022/12/01 11:37:56;;;;;;;13.38;6.63;;;11.50;99.90;;;;;;4970430;28;20102;-60
2022/12/01 11:40:26;;;;;;;11.98;5.53;;;12.00;99.90;;;;;;4970157;28;20031;-63
2022/12/01 11:42:57;;;;;;;35.13;12.73;;;12.20;99.90;;;;;;4962845;28;20058;-59
2022/12/01 11:45:46;;;;;;;8.32;3.78;;;12.60;99.90;;;;;;4975052;28;20031;-60
2022/12/01 11:48:11;;;;;;;9.20;3.88;;;12.90;99.90;;;;;;4967624;28;20458;-58
2022/12/01 11:50:41;;;;;;;6.68;3.13;;;13.00;99.90;;;;;;4969088;28;20035;-61
2022/12/01 11:53:34;;;;;;;6.05;3.20;;;12.60;99.90;;;;;;4972500;28;20043;-62
2022/12/01 11:56:19;;;;;;;4.78;2.63;;;12.40;99.90;;;;;;4974496;28;20039;-59
2022/12/01 11:58:47;;;;;;;6.70;2.03;;;12.60;99.90;;;;;;4970234;28;20034;-59
2022/12/01 12:01:45;;;;;;;4.32;2.35;;;12.50;99.90;;;;;;4967505;28;20520;-60
2022/12/01 12:04:42;;;;;;;13.00;3.17;;;13.00;99.90;;;;;;4973190;28;20039;-60
2022/12/01 12:07:32;;;;;;;3.65;2.20;;;13.70;99.90;;;;;;4974228;28;20027;-60
2022/12/01 12:10:20;;;;;;;6.70;2.05;;;13.80;99.90;;;;;;4961792;28;20078;-60
2022/12/01 12:12:55;;;;;;;5.13;1.80;;;13.60;99.90;;;;;;4969418;28;20038;-60
2022/12/01 12:15:40;;;;;;;5.07;2.45;;;13.80;99.90;;;;;;4971430;28;20077;-60
2022/12/01 12:18:47;;;;;;;4.55;2.33;;;14.20;99.90;;;;;;4972643;28;20502;-59
2022/12/01 12:21:37;;;;;;;4.10;1.98;;;14.60;99.90;;;;;;4968610;28;20076;-59
2022/12/01 12:24:15;;;;;;;5.45;1.73;;;15.00;99.90;;;;;;4967889;28;20034;-59
2022/12/01 12:26:53;;;;;;;6.93;2.00;;;15.20;99.90;;;;;;4977214;28;20034;-59
2022/12/01 12:29:37;;;;;;;3.03;1.63;;;15.40;99.90;;;;;;4968907;28;20494;-60
2022/12/01 12:32:27;;;;;;;8.38;2.63;;;15.60;99.90;;;;;;4969976;28;20043;-60
2022/12/01 12:35:27;;;;;;;5.57;1.70;;;15.80;99.90;;;;;;4972169;28;20487;-60
2022/12/01 12:38:26;;;;;;;6.07;1.60;;;15.30;99.90;;;;;;4967542;28;20022;-61
2022/12/01 12:41:10;;;;;;;4.90;2.50;;;15.10;99.90;;;;;;4971876;28;20058;-60
2022/12/01 12:43:51;;;;;;;5.10;1.77;;;15.20;99.90;;;;;;4971870;28;20125;-59
2022/12/01 12:46:28;;;;;;;3.58;1.60;;;15.20;99.90;;;;;;4969725;28;20026;-60
2022/12/01 12:49:13;;;;;;;6.18;2.15;;;15.10;99.90;;;;;;4962550;28;20035;-60
2022/12/01 12:51:45;;;;;;;5.05;2.00;;;15.30;99.90;;;;;;4967957;28;20074;-60
2022/12/01 12:54:36;;;;;;;6.13;1.58;;;15.50;99.90;;;;;;4974931;28;20081;-60
2022/12/01 12:57:18;;;;;;;3.47;1.80;;;15.50;99.90;;;;;;4966510;28;20475;-61
2022/12/01 13:00:05;;;;;;;5.22;1.58;;;15.40;99.90;;;;;;4962405;28;20032;-60
2022/12/01 13:02:53;;;;;;;3.83;1.73;;;15.60;99.90;;;;;;4967013;28;20121;-59
2022/12/01 13:05:25;;;;;;;7.95;1.98;;;15.50;99.90;;;;;;4961932;28;20085;-59
2022/12/01 13:07:57;;;;;;;9.95;2.72;;;15.00;99.90;;;;;;4967019;28;20121;-60
2022/12/01 13:10:36;;;;;;;;;;;14.90;99.90;;;;;;4963928;28;20038;-59